Ellerbe, NC (28338)

6:34 PM EDT on August 30, 2014 (GMT -0400)
RAWS ROCKINGHAM NC US | Change Station
CLOSE
Current Station
Personal Weather Station
Location: Rockingham, NC
Elevation: 399 ft
Nearby Weather Stations

Elev 399 ft 34.96 °N, 79.69 °W | Updated 49 minutes ago

Clear
Clear
94 °F
Feels Like 95 °F
N
5
Wind Variable Wind from SSW
Gusts 15.0 mph

Today
High -- | Low -- °F
--% Chance of Precip.
Yesterday
High -- | Low -- °F
Precip. -- in
6:50 AM 7:48 PM
Waxing Crescent, 25% visible
Pressure 30.10 in
Visibility 10.0 miles
Clouds Clear
Heat Index 95 °F
Dew Point 62 °F
Humidity 35%
Rainfall 0.00 in
Snow Depth Not available.
UV 1 out of 12
Pollen 9.00 out of 12
Air Quality Not available.
Flu Activity Not available.
METAR KRCZ 302215Z AUTO 16006KT 10SM CLR 32/18 A3010 RMK AO2 T03230175

More Conditions Fewer Conditions

Pressure 30.10 in
Visibility 10.0 miles
Clouds Clear
Heat Index 95 °F
Dew Point 62 °F
Humidity 35%
Rainfall 0.00 in
Snow Depth Not available.
UV 1 out of 12
Pollen 9.00 out of 12
Air Quality Not available.
Flu Activity Not available.
METAR KRCZ 302215Z AUTO 16006KT 10SM CLR 32/18 A3010 RMK AO2 T03230175

More Conditions Fewer Conditions

10-Day Weather Forecast

Almanac

Astronomy

Aug. 30, 2014 Rise Set
Actual Time 6:50 AM EDT 7:48 PM EDT
Civil Twilight 6:24 AM EDT 8:14 PM EDT
Nautical Twilight 5:53 AM EDT 8:45 PM EDT
Astronomical Twilight 5:21 AM EDT 9:16 PM EDT
Moon 11:23 AM EDT 10:34 PM EDT
Length of Visible Light 13h 50m
Length of Day
12h 58m
Tomorrow will be 2m 6s shorter.
Waxing Crescent, 25% of the Moon is Illuminated
Today
Waxing Crescent
Sep 2
First Quarter
Sep 8
Full
Sep 15
Last Quarter
Sep 24
New

Today's Extremes

State Highs State Lows

Community

WunderPhotos

Upload Photos

1,748,657 photos uploaded!

WunderBlogs® & News

Nearby

Snow Depth

Station Depth Elevation
No new snow has been reported.

Earthquake Activity

City Distance Mag. Time & Date
No recent earthquake activity has been reported nearby.
Minimum magnitude displayed is 2.5.

Coastal Water Temperatures

Place Temperature
No Stations Reporting

Nearby Weather Stations